createdAt,value
2018-05-11T00:02:20.825Z,82.70
2018-05-11T00:04:55.148Z,82.50
2018-05-11T00:07:29.439Z,82.60
2018-05-11T00:10:03.936Z,82.00
2018-05-11T00:12:38.336Z,81.60
2018-05-11T00:15:12.680Z,81.90
2018-05-11T00:17:47.805Z,82.20
2018-05-11T00:20:22.456Z,82.20
2018-05-11T00:22:56.944Z,82.40
2018-05-11T00:25:31.385Z,82.60
2018-05-11T00:28:05.680Z,82.50
2018-05-11T00:30:40.752Z,83.00
2018-05-11T00:33:15.056Z,82.90
2018-05-11T00:35:49.379Z,82.70
2018-05-11T00:38:23.980Z,82.80
2018-05-11T00:40:58.293Z,82.90
2018-05-11T00:43:32.655Z,83.00
2018-05-11T00:46:07.000Z,83.50
2018-05-11T00:48:41.308Z,83.10
2018-05-11T00:51:15.776Z,83.20
2018-05-11T00:53:50.095Z,83.50
2018-05-11T00:56:24.820Z,83.40
2018-05-11T00:58:59.176Z,83.60
2018-05-11T01:01:33.497Z,83.60
2018-05-11T01:04:07.982Z,83.70
2018-05-11T01:06:42.322Z,83.80
2018-05-11T01:09:16.643Z,83.50
2018-05-11T01:11:51.162Z,82.80
2018-05-11T01:14:25.485Z,83.60
2018-05-11T01:16:59.847Z,82.70
2018-05-11T01:19:34.924Z,83.50
2018-05-11T01:22:09.230Z,83.40
2018-05-11T01:24:43.776Z,82.90
2018-05-11T01:27:18.204Z,83.50
2018-05-11T01:29:52.612Z,83.40
2018-05-11T01:32:27.037Z,84.40
2018-05-11T01:35:01.461Z,84.20
2018-05-11T01:37:36.569Z,83.70
2018-05-11T01:40:11.027Z,83.70
2018-05-11T01:42:45.416Z,84.20
2018-05-11T01:45:19.762Z,83.70
2018-05-11T01:47:54.135Z,84.50
2018-05-11T01:50:28.422Z,84.20
2018-05-11T01:53:02.720Z,84.00
2018-05-11T01:55:37.120Z,83.80
2018-05-11T01:58:11.467Z,84.10
2018-05-11T02:00:45.871Z,84.40
2018-05-11T02:03:20.337Z,84.20
2018-05-11T02:05:54.693Z,83.80
2018-05-11T02:08:28.982Z,84.10
2018-05-11T02:11:03.351Z,84.50
2018-05-11T02:13:37.789Z,85.70
2018-05-11T02:16:12.250Z,84.60
2018-05-11T02:18:46.589Z,85.80
2018-05-11T02:21:20.932Z,80.40
2018-05-11T02:23:55.375Z,71.70
2018-05-11T02:26:29.952Z,66.40
2018-05-11T02:29:04.235Z,63.20
2018-05-11T02:31:39.280Z,59.90
2018-05-11T02:34:13.869Z,59.90
2018-05-11T02:36:48.276Z,59.00
2018-05-11T02:39:23.389Z,57.70
2018-05-11T02:41:58.624Z,57.20
2018-05-11T02:44:33.085Z,57.10
2018-05-11T02:47:07.972Z,56.80
2018-05-11T02:49:42.445Z,56.30
2018-05-11T02:52:18.265Z,55.70
2018-05-11T02:54:52.724Z,55.60
2018-05-11T02:57:27.829Z,55.20
2018-05-11T03:00:02.297Z,55.10
2018-05-11T03:02:36.682Z,54.90
2018-05-11T03:05:11.102Z,54.50
2018-05-11T03:07:46.316Z,54.20
2018-05-11T03:10:20.650Z,54.20
2018-05-11T03:12:54.996Z,53.90
2018-05-11T03:15:29.285Z,53.80
2018-05-11T03:18:03.691Z,53.70
2018-05-11T03:20:38.063Z,53.50
2018-05-11T03:23:12.546Z,53.50
2018-05-11T03:25:46.932Z,53.50
2018-05-11T03:28:21.425Z,53.60
2018-05-11T03:30:55.947Z,53.40
2018-05-11T03:33:30.225Z,53.30
2018-05-11T03:36:04.700Z,53.10
2018-05-11T03:38:39.166Z,53.10
2018-05-11T03:41:13.553Z,52.90
2018-05-11T03:43:47.957Z,52.80
2018-05-11T03:46:22.463Z,52.70
2018-05-11T03:48:57.005Z,52.70
2018-05-11T03:51:31.489Z,52.70
2018-05-11T03:54:05.925Z,52.60
2018-05-11T03:56:40.454Z,52.50
2018-05-11T03:59:14.825Z,52.40
2018-05-11T04:02:01.168Z,52.60
2018-05-11T04:04:47.351Z,52.40
2018-05-11T04:07:35.188Z,52.10
2018-05-11T04:10:09.496Z,52.10
2018-05-11T04:12:44.029Z,51.90
2018-05-11T04:15:18.571Z,51.80
2018-05-11T04:17:52.865Z,51.80
2018-05-11T04:20:28.725Z,51.70
2018-05-11T04:23:03.030Z,51.60
2018-05-11T04:25:37.468Z,51.70
2018-05-11T04:28:12.517Z,51.70
2018-05-11T04:30:47.752Z,52.70
2018-05-11T04:33:22.158Z,52.00
2018-05-11T04:35:56.477Z,51.90
2018-05-11T04:38:30.902Z,51.90
2018-05-11T04:41:05.272Z,51.90
2018-05-11T04:43:39.673Z,52.10
2018-05-11T04:46:14.040Z,52.20
2018-05-11T04:48:48.391Z,52.10
2018-05-11T04:51:22.705Z,52.40
2018-05-11T04:53:56.999Z,52.80
2018-05-11T04:56:32.031Z,52.50
2018-05-11T04:59:06.457Z,52.50
2018-05-11T05:01:40.838Z,52.70
2018-05-11T05:04:15.310Z,52.60
2018-05-11T05:06:49.760Z,52.40
2018-05-11T05:09:24.149Z,52.30
2018-05-11T05:11:58.566Z,52.10
2018-05-11T05:14:32.884Z,52.20
2018-05-11T05:17:07.226Z,52.20
2018-05-11T05:19:41.586Z,51.90
2018-05-11T05:22:15.864Z,51.90
2018-05-11T05:24:50.445Z,52.00
2018-05-11T05:27:24.878Z,52.30
2018-05-11T05:29:59.210Z,52.40
2018-05-11T05:32:34.305Z,52.10
2018-05-11T05:35:08.605Z,52.10
2018-05-11T05:37:43.109Z,52.20
2018-05-11T05:40:17.626Z,52.00
2018-05-11T05:42:51.904Z,51.90
2018-05-11T05:45:26.164Z,51.90
2018-05-11T05:48:00.691Z,51.90
2018-05-11T05:50:35.254Z,52.00
2018-05-11T05:53:09.606Z,52.00
2018-05-11T05:55:43.888Z,52.30
2018-05-11T05:58:19.052Z,52.40
2018-05-11T06:00:54.188Z,52.70
2018-05-11T06:03:28.608Z,52.70
2018-05-11T06:06:03.164Z,53.30
2018-05-11T06:08:37.668Z,54.80
2018-05-11T06:11:12.210Z,55.30
2018-05-11T06:13:46.830Z,57.30
2018-05-11T06:16:21.101Z,56.40
2018-05-11T06:18:55.604Z,58.10
2018-05-11T06:21:30.792Z,56.60
2018-05-11T06:24:05.202Z,56.60
2018-05-11T06:26:39.669Z,56.50
2018-05-11T06:29:14.778Z,56.80
2018-05-11T06:31:49.208Z,56.80
2018-05-11T06:34:23.529Z,57.70
2018-05-11T06:36:58.547Z,57.50
2018-05-11T06:39:32.889Z,57.50
2018-05-11T06:42:07.290Z,60.70
2018-05-11T06:44:41.542Z,57.70
2018-05-11T06:47:15.965Z,57.80
2018-05-11T06:49:50.259Z,58.50
2018-05-11T06:52:24.751Z,57.90
2018-05-11T06:55:00.001Z,59.40
2018-05-11T06:57:34.616Z,59.50
2018-05-11T07:00:08.973Z,61.50
2018-05-11T07:02:43.476Z,59.00
2018-05-11T07:05:17.789Z,60.70
2018-05-11T07:07:52.226Z,57.50
2018-05-11T07:10:27.444Z,58.10
2018-05-11T07:13:03.812Z,62.40
2018-05-11T07:15:40.089Z,58.90
2018-05-11T07:18:19.281Z,56.70
2018-05-11T07:26:54.608Z,55.40
2018-05-11T07:29:32.292Z,56.20
2018-05-11T07:32:06.718Z,57.00
2018-05-11T07:34:41.245Z,56.30
2018-05-11T07:37:15.873Z,57.00
2018-05-11T07:39:50.288Z,56.00
2018-05-11T07:42:25.317Z,54.40
2018-05-11T07:44:59.821Z,54.40
2018-05-11T07:47:34.258Z,56.00
2018-05-11T07:50:08.596Z,56.30
2018-05-11T07:52:43.088Z,53.70
2018-05-11T07:55:18.310Z,54.60
2018-05-11T07:57:52.782Z,54.60
2018-05-11T08:00:27.866Z,50.60
2018-05-11T08:03:02.450Z,50.60
2018-05-11T08:05:36.832Z,50.30
2018-05-11T08:08:11.268Z,51.20
2018-05-11T08:10:45.581Z,52.20
2018-05-11T08:13:20.024Z,52.70
2018-05-11T08:15:54.917Z,52.50
2018-05-11T08:18:29.272Z,51.60
2018-05-11T08:21:03.665Z,52.00
2018-05-11T08:23:38.053Z,51.50
2018-05-11T08:26:12.624Z,50.90
2018-05-11T08:28:47.738Z,48.70
2018-05-11T08:31:22.191Z,48.70
2018-05-11T08:33:57.288Z,49.10
2018-05-11T08:36:31.762Z,49.10
2018-05-11T08:39:06.160Z,49.20
2018-05-11T08:41:40.456Z,49.80
2018-05-11T08:44:14.916Z,50.60
2018-05-11T08:46:49.427Z,50.00
2018-05-11T08:49:23.845Z,48.20
2018-05-11T08:51:58.273Z,46.70
2018-05-11T08:54:32.744Z,46.50
2018-05-11T08:57:07.066Z,46.30
2018-05-11T08:59:41.358Z,45.60
2018-05-11T09:02:15.844Z,44.80
2018-05-11T09:04:50.220Z,44.30
2018-05-11T09:07:24.863Z,43.90
2018-05-11T09:09:59.284Z,44.30
2018-05-11T09:12:33.652Z,45.10
2018-05-11T09:15:08.077Z,45.40
2018-05-11T09:17:42.592Z,44.60
2018-05-11T09:20:16.876Z,44.80
2018-05-11T09:22:52.018Z,45.10
2018-05-11T09:25:26.436Z,45.00
2018-05-11T09:28:00.792Z,45.10
2018-05-11T09:30:35.888Z,44.20
2018-05-11T09:33:10.220Z,44.20
2018-05-11T09:35:44.693Z,42.80
2018-05-11T09:38:19.020Z,42.50
2018-05-11T09:40:53.431Z,43.10
2018-05-11T09:43:27.849Z,42.30
2018-05-11T09:46:02.640Z,41.60
2018-05-11T09:48:36.924Z,41.10
2018-05-11T09:51:11.358Z,40.30
2018-05-11T09:53:45.769Z,39.70
2018-05-11T09:56:21.222Z,41.50
2018-05-11T09:58:55.562Z,41.40
2018-05-11T10:01:29.808Z,42.30
2018-05-11T10:04:04.119Z,41.40
2018-05-11T10:06:38.361Z,41.60
2018-05-11T10:09:12.836Z,42.10
2018-05-11T10:11:47.475Z,43.20
2018-05-11T10:14:21.973Z,42.90
2018-05-11T10:16:56.291Z,41.90
2018-05-11T10:19:31.337Z,42.40
2018-05-11T10:22:05.755Z,42.40
2018-05-11T10:24:40.181Z,41.30
2018-05-11T10:27:16.017Z,41.00
2018-05-11T10:29:50.452Z,41.00
2018-05-11T10:32:24.759Z,40.70
2018-05-11T10:34:59.025Z,41.70
2018-05-11T10:37:33.359Z,41.80
2018-05-11T10:40:08.549Z,43.30
2018-05-11T10:42:43.176Z,43.20
2018-05-11T10:45:17.515Z,43.20
2018-05-11T10:47:51.925Z,42.30
2018-05-11T10:50:27.026Z,43.20
2018-05-11T10:53:01.493Z,43.20
2018-05-11T10:55:35.863Z,43.70
2018-05-11T10:58:10.324Z,44.60
2018-05-11T11:00:44.642Z,44.70
2018-05-11T11:03:19.077Z,46.50
2018-05-11T11:05:54.171Z,44.70
2018-05-11T11:08:28.744Z,44.60
2018-05-11T11:11:03.145Z,44.20
2018-05-11T11:13:37.719Z,42.60
2018-05-11T11:16:11.914Z,42.50
2018-05-11T11:18:46.317Z,44.00
2018-05-11T11:21:20.869Z,43.80
2018-05-11T11:23:55.352Z,43.50
2018-05-11T11:26:29.672Z,42.50
2018-05-11T11:29:03.938Z,42.40
2018-05-11T11:31:38.374Z,41.70
2018-05-11T11:34:13.475Z,41.80
2018-05-11T11:36:47.756Z,41.80
2018-05-11T11:39:22.076Z,42.20
2018-05-11T11:41:56.666Z,43.70
2018-05-11T11:44:31.141Z,44.20
2018-05-11T11:47:05.412Z,45.60
2018-05-11T11:49:40.573Z,47.00
2018-05-11T11:52:15.220Z,47.00
2018-05-11T11:54:49.716Z,47.10
2018-05-11T11:57:24.033Z,46.80
2018-05-11T11:59:58.651Z,46.10
2018-05-11T12:02:33.175Z,46.70
2018-05-11T12:05:07.665Z,46.60
2018-05-11T12:07:42.041Z,48.30
2018-05-11T12:10:16.354Z,48.20
2018-05-11T12:12:50.650Z,45.00
2018-05-11T12:15:24.994Z,45.90
2018-05-11T12:17:59.460Z,46.50
2018-05-11T12:20:33.820Z,47.00
2018-05-11T12:23:08.304Z,48.40
2018-05-11T12:25:42.710Z,46.60
2018-05-11T12:28:17.074Z,46.80
2018-05-11T12:30:51.521Z,47.80
2018-05-11T12:33:25.815Z,46.60
2018-05-11T12:36:00.350Z,44.40
2018-05-11T12:38:35.567Z,44.40
2018-05-11T12:41:09.897Z,44.40
2018-05-11T12:43:44.455Z,45.70
2018-05-11T12:46:18.944Z,44.50
2018-05-11T12:48:53.276Z,45.90
2018-05-11T12:51:28.204Z,45.30
2018-05-11T12:54:02.623Z,45.80
2018-05-11T12:56:37.065Z,45.50
2018-05-11T12:59:11.668Z,45.50
2018-05-11T13:04:34.985Z,46.60
2018-05-11T13:07:09.597Z,46.50
2018-05-11T13:09:43.885Z,44.70
2018-05-11T13:12:18.233Z,45.00
2018-05-11T13:14:52.621Z,44.10
2018-05-11T13:17:26.977Z,45.00
2018-05-11T13:20:01.355Z,44.70
2018-05-11T13:22:35.692Z,44.90
2018-05-11T13:25:10.072Z,45.70
2018-05-11T13:27:44.363Z,43.70
2018-05-11T13:30:18.752Z,43.10
2018-05-11T13:32:53.121Z,45.00
2018-05-11T13:35:27.403Z,41.60
2018-05-11T13:38:02.555Z,42.20
2018-05-11T13:40:36.869Z,42.00
2018-05-11T13:43:11.400Z,43.30
2018-05-11T13:45:45.729Z,43.80
2018-05-11T13:48:20.818Z,43.60
2018-05-11T13:50:55.091Z,43.60
2018-05-11T13:53:29.409Z,43.70
2018-05-11T13:56:04.691Z,44.90
2018-05-11T13:58:38.935Z,44.80
2018-05-11T14:01:13.340Z,44.40
2018-05-11T14:03:47.648Z,44.30
2018-05-11T14:06:21.973Z,43.30
2018-05-11T14:08:56.287Z,43.50
2018-05-11T14:11:30.865Z,43.00
2018-05-11T14:14:05.240Z,41.70
2018-05-11T14:16:39.609Z,42.70
2018-05-11T14:19:14.077Z,41.60
2018-05-11T14:21:48.532Z,39.90
2018-05-11T14:24:22.862Z,40.30
2018-05-11T14:26:57.467Z,41.80
2018-05-11T14:29:31.816Z,42.00
2018-05-11T14:32:06.256Z,41.40
2018-05-11T14:34:40.499Z,41.60
2018-05-11T14:37:14.776Z,43.50
2018-05-11T14:39:49.870Z,39.80
2018-05-11T14:42:25.026Z,41.00
2018-05-11T14:44:59.437Z,41.00
2018-05-11T14:47:33.855Z,43.10
2018-05-11T14:50:08.200Z,42.50
2018-05-11T14:52:42.624Z,42.10
2018-05-11T14:55:17.037Z,39.30
2018-05-11T14:57:51.436Z,38.00
2018-05-11T15:00:25.745Z,39.60
2018-05-11T15:03:00.088Z,41.10
2018-05-11T15:05:34.451Z,38.60
2018-05-11T15:08:08.722Z,37.80
2018-05-11T15:10:43.053Z,41.10
2018-05-11T15:13:17.676Z,37.70
2018-05-11T15:15:52.074Z,38.10
2018-05-11T15:18:26.510Z,38.70
2018-05-11T15:21:00.836Z,43.20
2018-05-11T15:23:35.167Z,42.70
2018-05-11T15:26:09.481Z,41.50
2018-05-11T15:28:43.809Z,40.80
2018-05-11T15:31:18.410Z,40.70
2018-05-11T15:33:52.693Z,41.80
2018-05-11T15:36:27.032Z,38.90
2018-05-11T15:39:01.346Z,39.70
2018-05-11T15:41:35.781Z,39.40
2018-05-11T15:44:10.089Z,38.10
2018-05-11T15:46:44.513Z,37.10
2018-05-11T15:49:18.967Z,35.00
2018-05-11T15:51:54.063Z,34.00
2018-05-11T15:54:28.487Z,33.90
2018-05-11T15:57:02.930Z,35.60
2018-05-11T15:59:43.674Z,36.00
2018-05-11T16:02:18.003Z,34.70
2018-05-11T16:04:53.150Z,34.40
2018-05-11T16:07:27.680Z,34.30
2018-05-11T16:10:02.005Z,33.30
2018-05-11T16:12:37.257Z,33.30
2018-05-11T16:15:11.658Z,33.20
2018-05-11T16:17:45.954Z,34.70
2018-05-11T16:20:20.575Z,37.00
2018-05-11T16:22:55.128Z,37.70
2018-05-11T16:25:29.404Z,32.00
2018-05-11T16:28:03.940Z,33.50
2018-05-11T16:30:38.377Z,31.70
2018-05-11T16:33:12.912Z,32.70
2018-05-11T16:35:47.273Z,33.80
2018-05-11T16:38:21.724Z,33.20
2018-05-11T16:40:56.966Z,38.80
2018-05-11T16:43:32.094Z,37.50
2018-05-11T16:46:06.564Z,37.60
2018-05-11T16:48:41.179Z,33.30
2018-05-11T16:51:15.492Z,33.60
2018-05-11T16:53:49.951Z,34.50
2018-05-11T16:56:24.376Z,34.60
2018-05-11T16:58:58.868Z,34.70
2018-05-11T17:01:33.279Z,34.30
2018-05-11T17:04:07.901Z,35.40
2018-05-11T17:06:42.306Z,36.50
2018-05-11T17:09:16.712Z,35.30
2018-05-11T17:11:50.995Z,35.00
2018-05-11T17:14:25.321Z,35.70
2018-05-11T17:16:59.644Z,35.30
2018-05-11T17:19:35.989Z,35.30
2018-05-11T17:22:10.501Z,34.50
2018-05-11T17:24:44.908Z,34.20
2018-05-11T17:27:19.225Z,35.00
2018-05-11T17:29:53.545Z,34.20
2018-05-11T17:32:27.944Z,39.80
2018-05-11T17:35:02.350Z,37.40
2018-05-11T17:37:36.693Z,34.90
2018-05-11T17:40:10.958Z,34.70
2018-05-11T17:42:45.368Z,34.90
2018-05-11T17:45:19.763Z,35.40
2018-05-11T17:47:54.084Z,35.80
2018-05-11T17:50:28.378Z,35.80
2018-05-11T17:53:02.706Z,36.00
2018-05-11T17:55:37.031Z,36.10
2018-05-11T17:58:12.260Z,37.20
2018-05-11T18:00:46.697Z,37.10
2018-05-11T18:03:21.991Z,37.50
2018-05-11T18:05:56.307Z,38.40
2018-05-11T18:08:30.786Z,38.90
2018-05-11T18:11:05.199Z,39.30
2018-05-11T18:13:39.528Z,39.50
2018-05-11T18:16:14.631Z,39.60
2018-05-11T18:18:48.956Z,39.50
2018-05-11T18:21:23.494Z,40.30
2018-05-11T18:23:58.046Z,40.90
2018-05-11T18:26:32.329Z,41.30
2018-05-11T18:29:06.614Z,41.00
2018-05-11T18:31:40.966Z,41.70
2018-05-11T18:34:15.390Z,41.90
2018-05-11T18:36:49.816Z,41.90
2018-05-11T18:39:29.243Z,42.00
2018-05-11T18:42:03.772Z,42.50
2018-05-11T18:44:38.184Z,42.90
2018-05-11T18:47:12.485Z,42.30
2018-05-11T18:49:46.818Z,42.90
2018-05-11T18:52:21.131Z,43.90
2018-05-11T18:54:55.530Z,43.00
2018-05-11T18:57:29.827Z,43.20
2018-05-11T19:00:04.133Z,43.60
2018-05-11T19:02:38.502Z,44.40
2018-05-11T19:05:12.982Z,43.50
2018-05-11T19:07:48.887Z,42.70
2018-05-11T19:10:23.255Z,42.60
2018-05-11T19:12:59.450Z,45.30
2018-05-11T19:15:33.817Z,45.30
2018-05-11T19:18:08.191Z,46.00
2018-05-11T19:20:42.546Z,46.70
2018-05-11T19:23:16.809Z,46.90
2018-05-11T19:25:51.177Z,47.10
2018-05-11T19:28:25.518Z,47.40
2018-05-11T19:31:00.039Z,47.90
2018-05-11T19:33:34.432Z,48.00
2018-05-11T19:36:09.096Z,48.10
2018-05-11T19:38:44.502Z,47.60
2018-05-11T19:41:18.834Z,48.00
2018-05-11T19:43:53.154Z,49.50
2018-05-11T19:46:27.475Z,50.50
2018-05-11T19:49:01.893Z,49.70
2018-05-11T19:51:36.164Z,49.20
2018-05-11T19:54:11.555Z,49.90
2018-05-11T19:56:45.724Z,49.90
2018-05-11T19:59:21.815Z,50.70
2018-05-11T20:01:56.964Z,51.20
2018-05-11T20:04:31.338Z,51.10
2018-05-11T20:07:05.746Z,51.50
2018-05-11T20:09:40.237Z,51.90
2018-05-11T20:12:14.593Z,52.10
2018-05-11T20:14:48.956Z,52.00
2018-05-11T20:17:23.294Z,52.60
2018-05-11T20:19:58.616Z,53.00
2018-05-11T20:22:33.070Z,53.00
2018-05-11T20:25:07.465Z,53.40
2018-05-11T20:27:41.887Z,53.50
2018-05-11T20:30:16.215Z,53.80
2018-05-11T20:32:50.648Z,54.60
2018-05-11T20:35:25.849Z,54.40
2018-05-11T20:38:00.392Z,54.30
2018-05-11T20:40:34.727Z,54.50
2018-05-11T20:43:09.032Z,54.90
2018-05-11T20:45:43.454Z,55.20
2018-05-11T20:48:17.724Z,55.30
2018-05-11T20:50:52.056Z,55.40
2018-05-11T20:53:26.525Z,55.30
2018-05-11T20:56:00.881Z,55.70
2018-05-11T20:58:35.470Z,55.80
2018-05-11T21:01:09.827Z,55.80
2018-05-11T21:03:44.180Z,56.10
2018-05-11T21:06:18.528Z,56.40
2018-05-11T21:08:53.032Z,56.30
2018-05-11T21:11:27.506Z,56.60
2018-05-11T21:14:01.863Z,56.70
2018-05-11T21:16:36.406Z,56.60
2018-05-11T21:19:10.889Z,56.60
2018-05-11T21:21:45.329Z,56.90
2018-05-11T21:24:19.756Z,57.10
2018-05-11T21:26:54.089Z,57.20
2018-05-11T21:29:28.408Z,57.30
2018-05-11T21:32:02.882Z,57.50
2018-05-11T21:34:37.232Z,57.50
2018-05-11T21:37:11.521Z,57.80
2018-05-11T21:39:45.906Z,57.90
2018-05-11T21:42:20.161Z,58.10
2018-05-11T21:44:54.720Z,58.40
2018-05-11T21:47:29.159Z,58.80
2018-05-11T21:50:03.631Z,58.90
2018-05-11T21:52:37.961Z,59.30
2018-05-11T21:55:12.325Z,59.50
2018-05-11T21:57:46.675Z,59.90
2018-05-11T22:00:21.121Z,59.90
2018-05-11T22:02:55.451Z,60.10
2018-05-11T22:05:30.114Z,60.50
2018-05-11T22:08:05.927Z,61.00
2018-05-11T22:10:40.469Z,61.00
2018-05-11T22:13:14.979Z,61.20
2018-05-11T22:15:49.532Z,61.40
2018-05-11T22:18:23.803Z,61.70
2018-05-11T22:20:58.361Z,62.10
2018-05-11T22:23:32.811Z,62.20
2018-05-11T22:26:07.087Z,62.40
2018-05-11T22:28:41.394Z,62.90
2018-05-11T22:31:15.746Z,63.40
2018-05-11T22:33:50.053Z,63.60
2018-05-11T22:36:25.409Z,63.80
2018-05-11T22:38:59.816Z,63.80
2018-05-11T22:41:34.240Z,64.20
2018-05-11T22:44:08.548Z,64.60
2018-05-11T22:46:43.671Z,65.10
2018-05-11T22:49:18.152Z,65.00
2018-05-11T22:51:52.619Z,65.30
2018-05-11T22:54:27.279Z,65.40
2018-05-11T22:57:01.779Z,65.50
2018-05-11T22:59:36.114Z,65.30
2018-05-11T23:02:10.464Z,65.70
2018-05-11T23:04:44.809Z,65.60
2018-05-11T23:07:19.362Z,65.80
2018-05-11T23:09:53.875Z,66.60
2018-05-11T23:12:28.290Z,65.70
2018-05-11T23:15:02.691Z,65.40
2018-05-11T23:17:36.961Z,66.10
2018-05-11T23:20:11.472Z,66.30
2018-05-11T23:22:45.929Z,66.00
2018-05-11T23:25:20.302Z,66.50
2018-05-11T23:27:54.809Z,66.80
2018-05-11T23:30:29.974Z,67.20
2018-05-11T23:33:04.306Z,67.10
2018-05-11T23:35:38.711Z,67.20
2018-05-11T23:38:13.228Z,67.30
2018-05-11T23:40:47.750Z,66.50
2018-05-11T23:43:22.051Z,65.60
2018-05-11T23:45:56.404Z,64.90
2018-05-11T23:48:30.790Z,66.20
2018-05-11T23:51:05.331Z,67.00
2018-05-11T23:53:39.598Z,67.50
2018-05-11T23:56:14.045Z,67.90
2018-05-11T23:58:49.108Z,68.40
